Latest Weather Observations for Lucinda

IDQ60801

Issued at 11:03 pm EST Wednesday 25 May 2022 (issued every 10 minutes, with the page automatically refreshed every 10 minutes)

About weather observations | Map of weather stations | Latest weather observations for QLD | Other Formats
Station Details ID: 032141 Name: LUCINDA POINT Lat: -18.52 Lon: 146.39 Height: 10.0 m
Data from the previous 72 hours. | See also: Recent months at Lucinda
Date/Time
EST
Temp
°C
App
Temp
°C
Dew
Point
°C
Rel
Hum
%
Delta-T
°C
Wind Press
QNH
hPa
Press
MSL
hPa
Rain since
9am
mm
Dir  Spd
km/h
Gust
km/h
Spd
kts
Gust
kts
25/11:00pm - - - - - ESE 13 20 7 11 1013.4 1013.4 -
25/10:30pm - - - - - SSE 9 19 5 10 1013.7 1013.7 -
25/10:00pm - - - - - SE 11 19 6 10 1013.8 1013.8 -
25/09:30pm - - - - - SE 13 20 7 11 1013.9 1013.9 -
25/09:00pm - - - - - SE 11 19 6 10 1014.1 1014.1 -
25/08:30pm - - - - - SE 13 20 7 11 1014.0 1014.0 -
25/08:00pm - - - - - SE 11 20 6 11 1013.7 1013.7 -
25/07:30pm - - - - - SE 13 22 7 12 1013.7 1013.7 -
25/07:00pm - - - - - SE 13 22 7 12 1013.4 1013.4 -
25/06:30pm - - - - - SE 15 22 8 12 1013.4 1013.4 -
25/06:00pm - - - - - SE 13 20 7 11 1013.1 1013.1 -
25/05:30pm - - - - - SE 15 24 8 13 1012.9 1012.9 -
25/05:00pm - - - - - SE 13 20 7 11 1012.8 1012.8 -
25/04:30pm - - - - - SE 11 20 6 11 1012.5 1012.5 -
25/04:00pm - - - - - ESE 13 20 7 11 1012.5 1012.5 -
25/03:30pm - - - - - ESE 11 19 6 10 1012.6 1012.6 -
25/03:00pm - - - - - SSE 9 15 5 8 1012.7 1012.7 -
25/02:30pm - - - - - S 9 13 5 7 1012.9 1012.9 -
25/02:00pm - - - - - S 15 19 8 10 1013.2 1013.2 -
25/01:30pm - - - - - S 15 20 8 11 1013.6 1013.6 -
25/01:00pm - - - - - S 15 19 8 10 1014.0 1014.0 -
25/12:30pm - - - - - SSW 19 22 10 12 1014.4 1014.4 -
25/12:00pm - - - - - S 19 20 10 11 1014.6 1014.6 -
25/11:30am - - - - - S 19 22 10 12 1014.8 1014.8 -
25/11:00am - - - - - S 22 26 12 14 1015.2 1015.2 -
25/10:30am - - - - - S 24 30 13 16 1015.8 1015.8 -
25/10:00am - - - - - S 24 28 13 15 1016.1 1016.1 -
25/09:30am - - - - - S 24 30 13 16 1016.0 1016.0 -
25/09:00am - - - - - S 24 30 13 16 1016.0 1016.0 -
25/08:30am - - - - - S 22 26 12 14 1015.9 1015.9 -
25/08:00am - - - - - S 20 26 11 14 1015.7 1015.7 -
25/07:30am - - - - - S 20 26 11 14 1015.6 1015.6 -
25/07:00am - - - - - S 13 24 7 13 1015.1 1015.1 -
25/06:30am - - - - - S 15 24 8 13 1014.8 1014.8 -
25/06:00am - - - - - S 17 26 9 14 1014.4 1014.4 -
25/05:30am - - - - - S 15 20 8 11 1014.2 1014.2 -
25/05:00am - - - - - S 13 15 7 8 1014.2 1014.2 -
25/04:30am - - - - - S 15 20 8 11 1013.9 1013.9 -
25/04:00am - - - - - S 13 17 7 9 1013.9 1013.9 -
25/03:30am - - - - - S 11 17 6 9 1014.2 1014.2 -
25/03:00am - - - - - S 17 24 9 13 1014.2 1014.2 -
25/02:30am - - - - - SSE 11 17 6 9 1014.2 1014.2 -
25/02:00am - - - - - S 13 19 7 10 1014.8 1014.8 -
25/01:30am - - - - - S 9 17 5 9 1014.8 1014.8 -
25/01:00am - - - - - SSE 11 17 6 9 1014.9 1014.9 -
25/12:30am - - - - - SE 13 24 7 13 1015.2 1015.2 -
25/12:00am - - - - - SSW 9 11 5 6 1015.5 1015.5 -
 
Date/Time
EST
Temp
°C
App
Temp
°C
Dew
Point
°C
Rel
Hum
%
Delta-T
°C
Wind Press
QNH
hPa
Press
MSL
hPa
Rain since
9am
mm
Dir  Spd
km/h
Gust
km/h
Spd
kts
Gust
kts
24/11:30pm - - - - - SW 6 9 3 5 1015.6 1015.6 -
24/11:00pm - - - - - SW 9 11 5 6 1015.8 1015.8 -
24/10:30pm - - - - - WSW 11 13 6 7 1015.9 1015.9 -
24/10:00pm - - - - - WSW 11 13 6 7 1016.1 1016.1 -
24/09:30pm - - - - - CALM 0 0 0 0 1016.1 1016.1 -
24/09:00pm - - - - - CALM 0 0 0 0 1016.1 1016.1 -
24/08:30pm - - - - - SE 6 9 3 5 1016.0 1016.0 -
24/08:00pm - - - - - ESE 4 7 2 4 1015.7 1015.7 -
24/07:30pm - - - - - ESE 7 9 4 5 1015.2 1015.2 -
24/07:00pm - - - - - ESE 7 11 4 6 1014.9 1014.9 -
24/06:30pm - - - - - E 7 9 4 5 1014.5 1014.5 -
24/06:00pm - - - - - ENE 7 11 4 6 1014.3 1014.3 -
24/05:30pm - - - - - ESE 7 11 4 6 1014.1 1014.1 -
24/05:00pm - - - - - ESE 6 7 3 4 1013.7 1013.7 -
24/04:30pm - - - - - ENE 6 9 3 5 1013.6 1013.6 -
24/04:00pm - - - - - ESE 9 15 5 8 1013.3 1013.3 -
24/03:30pm - - - - - E 9 13 5 7 1013.2 1013.2 -
24/03:00pm - - - - - ESE 9 13 5 7 1013.3 1013.3 -
24/02:30pm - - - - - ESE 9 15 5 8 1013.5 1013.5 -
24/02:00pm - - - - - ESE 9 15 5 8 1013.6 1013.6 -
24/01:30pm - - - - - SE 9 17 5 9 1014.0 1014.0 -
24/01:00pm - - - - - S 9 13 5 7 1014.4 1014.4 -
24/12:30pm - - - - - S 13 17 7 9 1014.8 1014.8 -
24/12:00pm - - - - - S 19 20 10 11 1015.1 1015.1 -
24/11:30am - - - - - S 20 26 11 14 1015.5 1015.5 -
24/11:00am - - - - - S 22 26 12 14 1015.7 1015.7 -
24/10:30am - - - - - S 22 24 12 13 1016.0 1016.0 -
24/10:00am - - - - - S 22 26 12 14 1016.2 1016.2 -
24/09:30am - - - - - S 20 28 11 15 1016.3 1016.3 -
24/09:00am - - - - - S 24 30 13 16 1016.1 1016.1 -
24/08:30am - - - - - S 22 30 12 16 1015.9 1015.9 -
24/08:00am - - - - - S 22 30 12 16 1015.7 1015.7 -
24/07:30am - - - - - S 17 30 9 16 1015.4 1015.4 -
24/07:00am - - - - - S 19 26 10 14 1015.2 1015.2 -
24/06:30am - - - - - S 26 33 14 18 1014.9 1014.9 -
24/06:00am - - - - - S 19 30 10 16 1014.7 1014.7 -
24/05:30am - - - - - S 15 24 8 13 1014.5 1014.5 -
24/05:00am - - - - - S 11 17 6 9 1014.4 1014.4 -
24/04:30am - - - - - SE 13 22 7 12 1014.3 1014.3 -
24/04:00am - - - - - S 15 22 8 12 1014.4 1014.4 -
24/03:30am - - - - - S 26 35 14 19 1014.2 1014.2 -
24/03:00am - - - - - S 43 54 23 29 1014.1 1014.1 -
24/02:40am - - - - - S 33 46 18 25 1014.2 1014.2 -
24/02:30am - - - - - S 20 24 11 13 1014.3 1014.3 -
24/02:00am - - - - - S 11 15 6 8 1014.5 1014.5 -
24/01:30am - - - - - SSE 11 19 6 10 1014.6 1014.6 -
24/01:00am - - - - - SE 11 20 6 11 1014.8 1014.8 -
24/12:30am - - - - - SE 11 20 6 11 1015.0 1015.0 -
24/12:00am - - - - - SE 15 24 8 13 1015.2 1015.2 -
 
Date/Time
EST
Temp
°C
App
Temp
°C
Dew
Point
°C
Rel
Hum
%
Delta-T
°C
Wind Press
QNH
hPa
Press
MSL
hPa
Rain since
9am
mm
Dir  Spd
km/h
Gust
km/h
Spd
kts
Gust
kts
23/11:30pm - - - - - SE 13 20 7 11 1015.4 1015.4 -
23/11:00pm - - - - - SE 11 19 6 10 1015.6 1015.6 -
23/10:30pm - - - - - ESE 11 19 6 10 1015.6 1015.6 -
23/10:00pm - - - - - SE 11 20 6 11 1015.5 1015.5 -
23/09:30pm - - - - - ESE 11 20 6 11 1015.6 1015.6 -
23/09:00pm - - - - - SE 11 20 6 11 1015.8 1015.8 -
23/08:30pm - - - - - SE 11 19 6 10 1016.0 1016.0 -
23/08:00pm - - - - - ESE 13 19 7 10 1015.8 1015.8 -
23/07:30pm - - - - - SE 13 22 7 12 1015.5 1015.5 -
23/07:00pm - - - - - ESE 13 24 7 13 1015.0 1015.0 -
23/06:30pm - - - - - SE 13 20 7 11 1014.8 1014.8 -
23/06:00pm - - - - - ESE 13 20 7 11 1014.6 1014.6 -
23/05:30pm - - - - - ESE 13 20 7 11 1014.4 1014.4 -
23/05:00pm - - - - - SSE 13 19 7 10 1014.3 1014.3 -
23/04:30pm - - - - - ESE 13 20 7 11 1013.9 1013.9 -
23/04:00pm - - - - - SE 13 19 7 10 1013.8 1013.8 -
23/03:30pm - - - - - SSE 11 20 6 11 1013.9 1013.9 -
23/03:00pm - - - - - ESE 9 13 5 7 1013.7 1013.7 -
23/02:30pm - - - - - SSE 7 11 4 6 1013.9 1013.9 -
23/02:00pm - - - - - S 11 17 6 9 1014.3 1014.3 -
23/01:30pm - - - - - S 19 22 10 12 1014.6 1014.6 -
23/01:00pm - - - - - S 19 24 10 13 1014.8 1014.8 -
23/12:30pm - - - - - S 20 26 11 14 1015.3 1015.3 -
23/12:00pm - - - - - S 20 24 11 13 1015.7 1015.7 -
23/11:30am - - - - - S 19 22 10 12 1015.6 1015.6 -
23/11:00am - - - - - S 20 24 11 13 1015.9 1015.9 -
23/10:30am - - - - - S 19 22 10 12 1016.1 1016.1 -
23/10:00am - - - - - S 19 24 10 13 1016.3 1016.3 -
23/09:30am - - - - - S 20 28 11 15 1016.4 1016.4 -
23/09:00am - - - - - S 20 26 11 14 1016.2 1016.2 -
23/08:30am - - - - - S 20 26 11 14 1015.9 1015.9 -
23/08:00am - - - - - S 20 28 11 15 1015.9 1015.9 -
23/07:30am - - - - - S 24 30 13 16 1015.5 1015.5 -
23/07:00am - - - - - S 26 30 14 16 1015.1 1015.1 -
23/06:30am - - - - - S 24 32 13 17 1014.6 1014.6 -
23/06:00am - - - - - S 22 30 12 16 1014.3 1014.3 -
23/05:30am - - - - - S 20 28 11 15 1013.9 1013.9 -
23/05:00am - - - - - S 24 30 13 16 1013.9 1013.9 -
23/04:30am - - - - - S 20 28 11 15 1013.7 1013.7 -
23/04:00am - - - - - S 20 30 11 16 1013.6 1013.6 -
23/03:30am - - - - - S 26 32 14 17 1013.6 1013.6 -
23/03:00am - - - - - S 26 30 14 16 1013.7 1013.7 -
23/02:30am - - - - - S 19 28 10 15 1013.7 1013.7 -
23/02:00am - - - - - SSW 19 30 10 16 1013.7 1013.7 -
23/01:30am - - - - - SW 15 19 8 10 1013.8 1013.8 -
23/01:00am - - - - - SW 19 20 10 11 1014.1 1014.1 -
23/12:30am - - - - - SW 17 19 9 10 1014.2 1014.2 -
23/12:00am - - - - - WSW 17 20 9 11 1014.3 1014.3 -
 
Date/Time
EST
Temp
°C
App
Temp
°C
Dew
Point
°C
Rel
Hum
%
Delta-T
°C
Wind Press
QNH
hPa
Press
MSL
hPa
Rain since
9am
mm
Dir  Spd
km/h
Gust
km/h
Spd
kts
Gust
kts
22/11:30pm - - - - - WSW 17 19 9 10 1014.5 1014.5 -

Other formats

Comma delimited format used in spreadsheet applications
http://www.bom.gov.au/fwo/IDQ60801/IDQ60801.94295.axf

JavaScript Object Notation format (JSON) in row-major order
http://www.bom.gov.au/fwo/IDQ60801/IDQ60801.94295.json

Data quality

Most of these data are generated automatically and are frequently updated. Quality checks on data are not normally performed. It is possible for incorrect values to appear. Refer to information at About Latest Weather Observations and please check the disclaimer before using these data.